createdAt,value
2018-01-29T00:01:34.339Z,6.20
2018-01-29T00:03:37.802Z,6.40
2018-01-29T00:05:40.451Z,5.57
2018-01-29T00:07:43.214Z,5.43
2018-01-29T00:09:45.960Z,6.23
2018-01-29T00:11:49.364Z,6.47
2018-01-29T00:13:52.793Z,5.40
2018-01-29T00:15:55.464Z,6.87
2018-01-29T00:17:58.151Z,5.83
2018-01-29T00:20:00.865Z,6.33
2018-01-29T00:22:03.500Z,6.40
2018-01-29T00:24:06.186Z,5.73
2018-01-29T00:26:08.831Z,5.93
2018-01-29T00:28:11.475Z,6.50
2018-01-29T00:30:14.905Z,6.10
2018-01-29T00:32:17.544Z,5.40
2018-01-29T00:34:22.032Z,6.17
2018-01-29T00:36:24.797Z,5.80
2018-01-29T00:38:27.460Z,5.80
2018-01-29T00:40:30.213Z,5.40
2018-01-29T00:42:33.655Z,5.37
2018-01-29T00:44:36.299Z,5.10
2018-01-29T00:46:38.992Z,4.60
2018-01-29T00:48:41.646Z,6.20
2018-01-29T00:50:44.306Z,5.50
2018-01-29T00:52:47.733Z,5.20
2018-01-29T00:54:50.497Z,5.40
2018-01-29T00:56:53.152Z,4.93
2018-01-29T00:58:56.679Z,5.50
2018-01-29T01:00:59.377Z,4.87
2018-01-29T01:03:02.058Z,4.73
2018-01-29T01:05:04.728Z,5.10
2018-01-29T01:07:07.369Z,5.40
2018-01-29T01:09:10.078Z,5.30
2018-01-29T01:11:12.731Z,5.10
2018-01-29T01:13:15.403Z,4.93
2018-01-29T01:15:18.095Z,4.40
2018-01-29T01:17:20.739Z,4.20
2018-01-29T01:19:23.428Z,3.87
2018-01-29T01:21:26.091Z,4.50
2018-01-29T01:23:29.566Z,4.50
2018-01-29T01:25:32.201Z,4.30
2018-01-29T01:27:34.832Z,4.93
2018-01-29T01:29:38.258Z,3.90
2018-01-29T01:31:40.907Z,4.67
2018-01-29T01:33:43.584Z,4.80
2018-01-29T01:35:47.484Z,3.77
2018-01-29T01:37:50.956Z,4.17
2018-01-29T01:39:53.639Z,5.07
2018-01-29T01:41:57.046Z,4.60
2018-01-29T01:44:00.568Z,5.07
2018-01-29T01:46:03.233Z,4.57
2018-01-29T01:48:05.884Z,5.40
2018-01-29T01:50:09.309Z,4.40
2018-01-29T01:52:11.971Z,4.80
2018-01-29T01:54:16.819Z,4.60
2018-01-29T01:56:19.483Z,5.80
2018-01-29T01:58:22.164Z,5.00
2018-01-29T02:00:24.829Z,4.57
2018-01-29T02:02:27.492Z,5.50
2018-01-29T02:04:30.896Z,5.47
2018-01-29T02:06:33.524Z,5.10
2018-01-29T02:08:36.243Z,5.17
2018-01-29T02:10:39.658Z,4.60
2018-01-29T02:12:42.309Z,4.80
2018-01-29T02:14:45.747Z,4.63
2018-01-29T02:16:48.408Z,4.60
2018-01-29T02:18:51.098Z,4.20
2018-01-29T02:20:53.815Z,4.50
2018-01-29T02:22:56.451Z,4.70
2018-01-29T02:24:59.132Z,4.30
2018-01-29T02:27:01.783Z,4.47
2018-01-29T02:29:04.423Z,4.20
2018-01-29T02:31:07.871Z,3.97
2018-01-29T02:33:10.518Z,3.77
2018-01-29T02:35:13.166Z,4.10
2018-01-29T02:37:16.604Z,3.37
2018-01-29T02:39:19.259Z,3.50
2018-01-29T02:41:21.941Z,3.60
2018-01-29T02:43:24.586Z,3.60
2018-01-29T02:45:28.038Z,3.43
2018-01-29T02:47:30.734Z,3.77
2018-01-29T02:49:33.403Z,3.33
2018-01-29T02:51:36.064Z,3.83
2018-01-29T02:53:38.763Z,3.20
2018-01-29T02:55:41.408Z,3.10
2018-01-29T02:57:44.069Z,3.17
2018-01-29T02:59:46.748Z,3.37
2018-01-29T03:01:49.407Z,3.50
2018-01-29T03:03:52.849Z,3.50
2018-01-29T03:05:55.538Z,3.60
2018-01-29T03:07:58.170Z,3.70
2018-01-29T03:10:00.850Z,3.30
2018-01-29T03:12:03.671Z,3.43
2018-01-29T03:14:06.309Z,3.97
2018-01-29T03:16:08.998Z,3.83
2018-01-29T03:18:11.643Z,3.40
2018-01-29T03:20:14.292Z,4.33
2018-01-29T03:22:16.952Z,3.33
2018-01-29T03:24:19.607Z,3.37
2018-01-29T03:26:22.245Z,3.70
2018-01-29T03:28:24.929Z,3.90
2018-01-29T03:30:27.603Z,3.60
2018-01-29T03:32:30.262Z,3.73
2018-01-29T03:34:32.932Z,3.70
2018-01-29T03:36:36.351Z,3.60
2018-01-29T03:38:39.035Z,3.90
2018-01-29T03:40:41.695Z,3.80
2018-01-29T03:42:44.324Z,3.73
2018-01-29T03:44:46.984Z,3.40
2018-01-29T03:46:49.649Z,3.90
2018-01-29T03:48:52.304Z,4.17
2018-01-29T03:50:54.957Z,4.17
2018-01-29T03:52:58.397Z,3.87
2018-01-29T03:55:01.086Z,4.90
2018-01-29T03:57:03.759Z,3.83
2018-01-29T03:59:06.434Z,4.27
2018-01-29T04:01:09.098Z,3.70
2018-01-29T04:03:11.766Z,3.87
2018-01-29T04:05:14.429Z,3.63
2018-01-29T04:07:17.069Z,3.50
2018-01-29T04:09:19.714Z,3.90
2018-01-29T04:11:22.406Z,5.20
2018-01-29T04:13:25.037Z,3.13
2018-01-29T04:15:27.672Z,3.23
2018-01-29T04:17:30.351Z,3.73
2018-01-29T04:19:32.985Z,4.20
2018-01-29T04:21:35.641Z,3.20
2018-01-29T04:23:38.327Z,2.90
2018-01-29T04:25:40.968Z,3.43
2018-01-29T04:27:44.380Z,3.43
2018-01-29T04:29:47.044Z,3.37
2018-01-29T04:31:49.695Z,3.60
2018-01-29T04:33:52.362Z,3.60
2018-01-29T04:35:55.789Z,3.27
2018-01-29T04:37:58.488Z,3.87
2018-01-29T04:40:01.313Z,3.50
2018-01-29T04:42:04.139Z,3.33
2018-01-29T04:44:07.890Z,3.53
2018-01-29T04:46:11.470Z,3.23
2018-01-29T04:48:14.215Z,3.70
2018-01-29T04:50:16.935Z,3.30
2018-01-29T04:52:19.776Z,3.40
2018-01-29T04:54:22.416Z,3.00
2018-01-29T04:56:25.831Z,3.40
2018-01-29T04:58:28.515Z,3.40
2018-01-29T05:00:31.212Z,3.57
2018-01-29T05:02:33.942Z,3.63
2018-01-29T05:04:37.412Z,3.20
2018-01-29T05:06:40.074Z,2.77
2018-01-29T05:08:42.763Z,3.07
2018-01-29T05:10:45.435Z,3.67
2018-01-29T05:12:48.085Z,3.60
2018-01-29T05:14:50.758Z,3.17
2018-01-29T05:16:53.480Z,3.30
2018-01-29T05:18:56.113Z,4.10
2018-01-29T05:20:58.752Z,2.97
2018-01-29T05:23:02.187Z,3.50
2018-01-29T05:25:04.862Z,3.33
2018-01-29T05:27:07.522Z,3.87
2018-01-29T05:29:10.203Z,3.37
2018-01-29T05:31:12.883Z,3.80
2018-01-29T05:33:15.578Z,3.80
2018-01-29T05:35:23.964Z,3.23
2018-01-29T05:37:31.584Z,3.03
2018-01-29T05:39:34.294Z,3.37
2018-01-29T05:41:36.959Z,2.90
2018-01-29T05:43:39.658Z,3.10
2018-01-29T05:45:43.123Z,3.10
2018-01-29T05:47:45.769Z,3.00
2018-01-29T05:49:48.455Z,3.63
2018-01-29T05:51:51.177Z,3.97
2018-01-29T05:53:54.867Z,3.17
2018-01-29T05:55:57.522Z,3.93
2018-01-29T05:58:00.217Z,3.20
2018-01-29T06:00:02.924Z,3.23
2018-01-29T06:02:05.574Z,2.90
2018-01-29T06:04:08.322Z,3.87
2018-01-29T06:06:10.977Z,3.30
2018-01-29T06:08:13.748Z,2.87
2018-01-29T06:10:16.534Z,3.23
2018-01-29T06:12:19.228Z,3.10
2018-01-29T06:14:23.001Z,3.60
2018-01-29T06:16:25.696Z,3.07
2018-01-29T06:18:28.353Z,3.20
2018-01-29T06:20:31.030Z,3.20
2018-01-29T06:22:33.702Z,3.77
2018-01-29T06:24:36.379Z,3.43
2018-01-29T06:26:39.042Z,3.23
2018-01-29T06:28:41.722Z,3.17
2018-01-29T06:30:44.364Z,2.97
2018-01-29T06:32:47.028Z,3.47
2018-01-29T06:34:49.670Z,3.20
2018-01-29T06:36:52.330Z,4.03
2018-01-29T06:38:54.998Z,3.30
2018-01-29T06:40:57.630Z,3.10
2018-01-29T06:43:00.313Z,3.40
2018-01-29T06:45:03.247Z,3.40
2018-01-29T06:47:05.908Z,3.30
2018-01-29T06:49:08.580Z,3.53
2018-01-29T06:51:11.989Z,3.10
2018-01-29T06:53:14.674Z,3.30
2018-01-29T06:55:17.350Z,2.93
2018-01-29T06:57:20.010Z,3.07
2018-01-29T06:59:22.680Z,3.70
2018-01-29T07:01:25.514Z,3.73
2018-01-29T07:03:28.173Z,3.67
2018-01-29T07:05:30.913Z,2.90
2018-01-29T07:07:33.584Z,3.60
2018-01-29T07:09:37.037Z,3.50
2018-01-29T07:11:39.758Z,3.20
2018-01-29T07:13:43.235Z,3.47
2018-01-29T07:15:46.766Z,2.90
2018-01-29T07:17:49.571Z,3.80
2018-01-29T07:19:52.221Z,3.40
2018-01-29T07:21:54.872Z,3.57
2018-01-29T07:23:58.394Z,3.30
2018-01-29T07:26:01.144Z,3.37
2018-01-29T07:28:04.669Z,3.00
2018-01-29T07:30:07.345Z,3.63
2018-01-29T07:32:09.985Z,3.03
2018-01-29T07:34:13.401Z,3.50
2018-01-29T07:36:17.007Z,2.83
2018-01-29T07:38:19.666Z,3.03
2018-01-29T07:40:22.948Z,3.30
2018-01-29T07:42:26.825Z,3.17
2018-01-29T07:44:29.633Z,3.17
2018-01-29T07:46:34.147Z,3.33
2018-01-29T07:48:38.358Z,3.60
2018-01-29T07:50:41.782Z,3.13
2018-01-29T07:52:44.443Z,3.40
2018-01-29T07:54:49.854Z,3.20
2018-01-29T07:56:53.833Z,3.53
2018-01-29T07:58:57.156Z,3.00
2018-01-29T08:01:01.203Z,3.30
2018-01-29T08:03:04.115Z,3.00
2018-01-29T08:05:08.945Z,2.83
2018-01-29T08:07:13.264Z,2.63
2018-01-29T08:09:16.752Z,2.57
2018-01-29T08:11:19.421Z,2.87
2018-01-29T08:13:22.087Z,2.50
2018-01-29T08:15:24.779Z,3.07
2018-01-29T08:17:27.436Z,2.70
2018-01-29T08:19:30.118Z,2.67
2018-01-29T08:21:33.090Z,2.73
2018-01-29T08:23:35.769Z,2.43
2018-01-29T08:25:38.541Z,2.80
2018-01-29T08:27:41.630Z,2.43
2018-01-29T08:29:44.315Z,2.93
2018-01-29T08:31:46.979Z,2.50
2018-01-29T08:33:49.653Z,2.20
2018-01-29T08:35:52.348Z,2.50
2018-01-29T08:37:55.017Z,2.40
2018-01-29T08:39:57.695Z,2.60
2018-01-29T08:42:00.466Z,2.40
2018-01-29T08:44:03.295Z,2.70
2018-01-29T08:46:05.958Z,2.50
2018-01-29T08:48:09.213Z,2.40
2018-01-29T08:50:12.005Z,2.10
2018-01-29T08:52:14.651Z,1.93
2018-01-29T08:54:17.343Z,2.07
2018-01-29T08:56:20.031Z,2.13
2018-01-29T08:58:23.839Z,1.90
2018-01-29T09:00:26.526Z,2.20
2018-01-29T09:02:29.269Z,2.07
2018-01-29T09:04:31.937Z,2.00
2018-01-29T09:06:34.623Z,2.47
2018-01-29T09:08:37.309Z,2.10
2018-01-29T09:10:39.991Z,1.80
2018-01-29T09:12:42.763Z,2.03
2018-01-29T09:14:45.456Z,1.70
2018-01-29T09:16:48.272Z,2.03
2018-01-29T09:18:50.951Z,2.00
2018-01-29T09:20:53.642Z,2.40
2018-01-29T09:22:57.062Z,2.40
2018-01-29T09:24:59.707Z,1.80
2018-01-29T09:27:03.162Z,1.43
2018-01-29T09:29:05.827Z,1.90
2018-01-29T09:31:08.464Z,1.97
2018-01-29T09:33:11.905Z,1.97
2018-01-29T09:35:14.559Z,1.50
2018-01-29T09:37:17.239Z,1.63
2018-01-29T09:39:19.886Z,1.70
2018-01-29T09:41:23.317Z,1.60
2018-01-29T09:43:26.005Z,1.73
2018-01-29T09:45:28.736Z,1.73
2018-01-29T09:47:31.531Z,1.63
2018-01-29T09:49:34.299Z,1.43
2018-01-29T09:51:37.112Z,1.70
2018-01-29T09:53:39.800Z,1.93
2018-01-29T09:55:42.482Z,1.97
2018-01-29T09:57:45.204Z,1.30
2018-01-29T09:59:49.055Z,2.07
2018-01-29T10:01:52.235Z,1.60
2018-01-29T10:03:54.907Z,2.70
2018-01-29T10:05:57.579Z,1.60
2018-01-29T10:08:00.455Z,1.50
2018-01-29T10:10:03.153Z,1.80
2018-01-29T10:12:05.906Z,1.80
2018-01-29T10:14:08.652Z,3.30
2018-01-29T10:16:12.301Z,2.23
2018-01-29T10:18:15.771Z,5.00
2018-01-29T10:20:18.446Z,2.33
2018-01-29T10:22:21.114Z,5.40
2018-01-29T10:24:23.942Z,6.07
2018-01-29T10:26:28.151Z,3.37
2018-01-29T10:28:31.099Z,2.37
2018-01-29T10:30:33.755Z,2.07
2018-01-29T10:32:37.346Z,12.60
2018-01-29T10:34:41.688Z,8.37
2018-01-29T10:36:44.360Z,4.83
2018-01-29T10:38:47.038Z,8.40
2018-01-29T10:40:49.920Z,8.60
2018-01-29T10:42:52.682Z,4.20
2018-01-29T10:44:55.378Z,1.90
2018-01-29T10:46:58.263Z,2.80
2018-01-29T10:49:01.242Z,4.70
2018-01-29T10:51:03.922Z,4.30
2018-01-29T10:53:06.599Z,5.50
2018-01-29T10:55:11.322Z,4.40
2018-01-29T10:57:15.641Z,2.43
2018-01-29T10:59:18.548Z,4.30
2018-01-29T11:01:21.620Z,4.13
2018-01-29T11:03:24.279Z,7.13
2018-01-29T11:05:26.971Z,2.67
2018-01-29T11:07:29.620Z,2.37
2018-01-29T11:09:32.288Z,3.67
2018-01-29T11:11:34.962Z,3.00
2018-01-29T11:13:37.634Z,4.10
2018-01-29T11:15:40.314Z,2.63
2018-01-29T11:17:43.045Z,3.00
2018-01-29T11:19:45.757Z,2.90
2018-01-29T11:21:49.246Z,3.13
2018-01-29T11:23:52.707Z,2.70
2018-01-29T11:25:55.379Z,2.93
2018-01-29T11:27:58.024Z,2.77
2018-01-29T11:30:00.702Z,2.67
2018-01-29T11:32:03.353Z,3.30
2018-01-29T11:34:06.779Z,2.23
2018-01-29T11:36:09.451Z,2.77
2018-01-29T11:38:12.092Z,2.60
2018-01-29T11:40:15.554Z,2.97
2018-01-29T11:42:18.259Z,3.13
2018-01-29T11:44:21.694Z,2.90
2018-01-29T11:46:24.375Z,2.57
2018-01-29T11:48:27.171Z,3.00
2018-01-29T11:50:30.098Z,3.30
2018-01-29T11:52:33.645Z,2.73
2018-01-29T11:54:36.308Z,3.17
2018-01-29T11:56:39.004Z,2.70
2018-01-29T11:58:41.665Z,3.67
2018-01-29T12:00:44.337Z,2.97
2018-01-29T12:02:47.016Z,3.03
2018-01-29T12:04:49.805Z,2.83
2018-01-29T12:06:52.662Z,3.10
2018-01-29T12:08:55.322Z,14.50
2018-01-29T12:10:57.989Z,16.27
2018-01-29T12:13:01.431Z,12.00
2018-01-29T12:15:04.093Z,9.83
2018-01-29T12:17:06.931Z,12.83
2018-01-29T12:19:15.679Z,4.07
2018-01-29T12:21:12.340Z,4.10
2018-01-29T12:23:15.204Z,6.03
2018-01-29T12:25:18.068Z,3.80
2018-01-29T12:27:20.727Z,4.00
2018-01-29T12:29:24.261Z,3.03
2018-01-29T12:31:27.129Z,2.30
2018-01-29T12:33:29.783Z,2.17
2018-01-29T12:35:33.231Z,2.90
2018-01-29T12:37:35.901Z,3.10
2018-01-29T12:39:38.576Z,2.63
2018-01-29T12:41:41.642Z,3.40
2018-01-29T12:43:44.517Z,3.43
2018-01-29T12:45:48.190Z,3.10
2018-01-29T12:47:51.844Z,3.03
2018-01-29T12:49:54.797Z,2.80
2018-01-29T12:51:57.470Z,3.10
2018-01-29T12:54:00.198Z,3.17
2018-01-29T12:56:02.855Z,3.43
2018-01-29T12:58:06.327Z,4.87
2018-01-29T13:00:09.096Z,3.47
2018-01-29T13:02:11.944Z,5.23
2018-01-29T13:04:14.872Z,5.87
2018-01-29T13:06:17.513Z,4.73
2018-01-29T13:08:20.963Z,3.73
2018-01-29T13:10:23.618Z,4.70
2018-01-29T13:12:26.273Z,3.60
2018-01-29T13:14:28.977Z,3.27
2018-01-29T13:16:31.840Z,3.87
2018-01-29T13:18:34.537Z,8.00
2018-01-29T13:20:37.219Z,14.60
2018-01-29T13:22:40.026Z,17.47
2018-01-29T13:24:42.779Z,10.07
2018-01-29T13:26:45.438Z,24.80
2018-01-29T13:28:48.078Z,8.47
2018-01-29T13:30:51.522Z,7.73
2018-01-29T13:32:54.172Z,6.40
2018-01-29T13:34:56.872Z,3.37
2018-01-29T13:36:59.673Z,4.70
2018-01-29T13:39:02.343Z,3.33
2018-01-29T13:41:05.088Z,3.07
2018-01-29T13:43:07.776Z,4.20
2018-01-29T13:45:10.542Z,3.70
2018-01-29T13:47:13.209Z,4.57
2018-01-29T13:49:15.887Z,4.00
2018-01-29T13:51:19.293Z,4.00
2018-01-29T13:53:22.034Z,3.90
2018-01-29T13:55:25.668Z,3.33
2018-01-29T13:57:28.333Z,2.70
2018-01-29T13:59:31.248Z,3.80
2018-01-29T14:01:33.928Z,3.60
2018-01-29T14:03:36.614Z,3.10
2018-01-29T14:05:39.321Z,2.63
2018-01-29T14:07:42.848Z,2.90
2018-01-29T14:09:45.624Z,3.37
2018-01-29T14:11:48.262Z,3.00
2018-01-29T14:13:51.684Z,3.87
2018-01-29T14:15:55.562Z,4.23
2018-01-29T14:17:58.976Z,4.77
2018-01-29T14:20:01.638Z,16.50
2018-01-29T14:22:05.167Z,22.50
2018-01-29T14:24:07.836Z,15.47
2018-01-29T14:26:10.492Z,26.00
2018-01-29T14:28:14.114Z,50.03
2018-01-29T14:30:16.820Z,28.10
2018-01-29T14:32:19.474Z,34.97
2018-01-29T14:34:23.264Z,22.53
2018-01-29T14:36:25.934Z,9.80
2018-01-29T14:38:28.653Z,5.90
2018-01-29T14:40:31.301Z,3.70
2018-01-29T14:42:33.982Z,2.40
2018-01-29T14:44:37.382Z,2.50
2018-01-29T14:46:40.023Z,2.20
2018-01-29T14:48:42.686Z,1.90
2018-01-29T14:50:46.093Z,1.40
2018-01-29T14:52:48.736Z,2.03
2018-01-29T14:54:51.392Z,2.40
2018-01-29T14:56:54.032Z,1.70
2018-01-29T14:58:56.693Z,4.20
2018-01-29T15:00:59.363Z,20.60
2018-01-29T15:03:02.767Z,14.43
2018-01-29T15:05:05.457Z,10.10
2018-01-29T15:07:08.147Z,8.93
2018-01-29T15:09:10.794Z,6.40
2018-01-29T15:11:13.449Z,4.20
2018-01-29T15:13:16.937Z,3.63
2018-01-29T15:15:19.586Z,4.47
2018-01-29T15:17:22.247Z,4.27
2018-01-29T15:19:24.913Z,2.57
2018-01-29T15:21:27.545Z,2.47
2018-01-29T15:23:30.171Z,3.77
2018-01-29T15:25:32.840Z,3.57
2018-01-29T15:27:35.469Z,4.23
2018-01-29T15:29:38.274Z,3.63
2018-01-29T15:31:41.082Z,4.13
2018-01-29T15:33:43.715Z,3.73
2018-01-29T15:35:47.228Z,4.27
2018-01-29T15:37:49.887Z,4.60
2018-01-29T15:39:53.291Z,4.50
2018-01-29T15:41:55.959Z,3.60
2018-01-29T15:43:59.604Z,4.47
2018-01-29T15:46:02.278Z,8.63
2018-01-29T15:48:04.946Z,3.93
2018-01-29T15:50:07.689Z,5.83
2018-01-29T15:52:11.107Z,4.53
2018-01-29T15:54:13.785Z,8.20
2018-01-29T15:56:16.570Z,8.00
2018-01-29T15:58:19.216Z,12.40
2018-01-29T16:00:22.661Z,12.33
2018-01-29T16:02:25.309Z,13.03
2018-01-29T16:04:28.189Z,10.50
2018-01-29T16:06:31.078Z,9.87
2018-01-29T16:08:33.743Z,7.57
2018-01-29T16:10:36.409Z,4.47
2018-01-29T16:12:39.186Z,9.57
2018-01-29T16:14:41.863Z,9.73
2018-01-29T16:16:44.508Z,8.47
2018-01-29T16:18:47.150Z,4.50
2018-01-29T16:20:49.920Z,5.10
2018-01-29T16:22:52.581Z,4.77
2018-01-29T16:24:55.229Z,3.97
2018-01-29T16:26:58.667Z,4.17
2018-01-29T16:29:01.304Z,3.60
2018-01-29T16:31:04.712Z,6.10
2018-01-29T16:33:07.371Z,16.83
2018-01-29T16:35:10.897Z,19.73
2018-01-29T16:37:13.574Z,26.60
2018-01-29T16:39:16.336Z,10.87
2018-01-29T16:41:19.223Z,18.70
2018-01-29T16:43:21.946Z,10.83
2018-01-29T16:45:24.611Z,5.83
2018-01-29T16:47:27.353Z,5.47
2018-01-29T16:49:30.568Z,3.80
2018-01-29T16:51:39.115Z,8.43
2018-01-29T16:53:42.857Z,13.10
2018-01-29T16:55:46.165Z,5.67
2018-01-29T16:57:49.238Z,6.47
2018-01-29T16:59:53.808Z,14.10
2018-01-29T17:01:56.521Z,9.07
2018-01-29T17:03:59.209Z,7.40
2018-01-29T17:06:01.859Z,9.80
2018-01-29T17:08:05.312Z,6.00
2018-01-29T17:10:08.243Z,6.77
2018-01-29T17:12:10.938Z,10.47
2018-01-29T17:14:13.613Z,8.57
2018-01-29T17:16:16.276Z,6.70
2018-01-29T17:18:18.913Z,7.27
2018-01-29T17:20:21.609Z,7.10
2018-01-29T17:22:25.016Z,14.40
2018-01-29T17:24:28.430Z,15.60
2018-01-29T17:26:31.100Z,12.03
2018-01-29T17:28:33.885Z,10.70
2018-01-29T17:30:36.515Z,9.20
2018-01-29T17:32:40.734Z,14.50
2018-01-29T17:34:43.396Z,13.33
2018-01-29T17:36:46.094Z,12.40
2018-01-29T17:38:49.569Z,11.87
2018-01-29T17:40:52.326Z,11.97
2018-01-29T17:42:54.987Z,10.33
2018-01-29T17:44:57.642Z,12.43
2018-01-29T17:47:00.733Z,9.87
2018-01-29T17:49:03.522Z,8.63
2018-01-29T17:51:06.186Z,10.33
2018-01-29T17:53:08.846Z,13.70
2018-01-29T17:55:12.297Z,12.00
2018-01-29T17:57:14.933Z,15.67
2018-01-29T17:59:17.882Z,12.43
2018-01-29T18:01:21.425Z,17.87
2018-01-29T18:03:24.094Z,17.53
2018-01-29T18:05:26.871Z,14.00
2018-01-29T18:07:29.670Z,18.30
2018-01-29T18:09:32.438Z,15.77
2018-01-29T18:11:35.110Z,16.47
2018-01-29T18:13:37.786Z,20.33
2018-01-29T18:15:40.452Z,13.70
2018-01-29T18:17:43.148Z,16.20
2018-01-29T18:19:45.788Z,12.83
2018-01-29T18:21:49.419Z,14.87
2018-01-29T18:23:52.120Z,15.07
2018-01-29T18:25:55.063Z,16.10
2018-01-29T18:27:57.779Z,12.33
2018-01-29T18:30:00.518Z,10.40
2018-01-29T18:32:03.179Z,12.90
2018-01-29T18:34:05.838Z,15.77
2018-01-29T18:36:09.436Z,11.87
2018-01-29T18:38:12.866Z,12.40
2018-01-29T18:40:15.663Z,12.70
2018-01-29T18:42:18.404Z,15.27
2018-01-29T18:44:21.809Z,13.07
2018-01-29T18:46:24.486Z,9.13
2018-01-29T18:48:27.145Z,8.23
2018-01-29T18:50:30.575Z,8.10
2018-01-29T18:52:33.273Z,5.23
2018-01-29T18:54:36.025Z,4.53
2018-01-29T18:56:38.674Z,3.67
2018-01-29T18:58:41.335Z,4.30
2018-01-29T19:00:44.736Z,4.37
2018-01-29T19:02:48.169Z,4.40
2018-01-29T19:04:51.016Z,5.30
2018-01-29T19:06:54.413Z,4.00
2018-01-29T19:08:57.091Z,5.47
2018-01-29T19:10:59.722Z,4.50
2018-01-29T19:13:02.536Z,4.07
2018-01-29T19:15:06.081Z,3.90
2018-01-29T19:17:08.734Z,4.90
2018-01-29T19:19:11.524Z,5.03
2018-01-29T19:21:14.221Z,4.80
2018-01-29T19:23:16.857Z,9.17
2018-01-29T19:25:19.683Z,4.20
2018-01-29T19:27:22.356Z,5.53
2018-01-29T19:29:25.103Z,3.93
2018-01-29T19:31:28.070Z,3.63
2018-01-29T19:33:30.700Z,3.60
2018-01-29T19:35:33.394Z,3.13
2018-01-29T19:37:36.857Z,4.07
2018-01-29T19:39:39.578Z,3.30
2018-01-29T19:41:43.041Z,2.83
2018-01-29T19:43:45.720Z,3.03
2018-01-29T19:45:48.510Z,3.13
2018-01-29T19:47:51.161Z,3.23
2018-01-29T19:49:53.904Z,2.17
2018-01-29T19:51:56.550Z,2.80
2018-01-29T19:54:00.120Z,3.10
2018-01-29T19:56:02.752Z,1.97
2018-01-29T19:58:05.446Z,2.57
2018-01-29T20:00:08.121Z,2.63
2018-01-29T20:02:10.771Z,2.20
2018-01-29T20:04:13.472Z,2.63
2018-01-29T20:06:16.418Z,2.40
2018-01-29T20:08:19.829Z,3.40
2018-01-29T20:10:22.504Z,2.00
2018-01-29T20:12:25.159Z,2.13
2018-01-29T20:14:28.671Z,2.00
2018-01-29T20:16:31.366Z,2.57
2018-01-29T20:18:34.018Z,3.67
2018-01-29T20:20:36.812Z,2.53
2018-01-29T20:22:39.472Z,3.40
2018-01-29T20:24:42.130Z,1.90
2018-01-29T20:26:46.639Z,1.93
2018-01-29T20:28:49.313Z,1.90
2018-01-29T20:30:52.068Z,2.80
2018-01-29T20:32:54.740Z,2.20
2018-01-29T20:34:57.603Z,2.63
2018-01-29T20:37:00.246Z,2.97
2018-01-29T20:39:03.753Z,3.67
2018-01-29T20:41:06.392Z,3.00
2018-01-29T20:43:09.118Z,3.80
2018-01-29T20:45:11.799Z,4.13
2018-01-29T20:47:14.445Z,3.50
2018-01-29T20:49:18.069Z,4.13
2018-01-29T20:51:20.834Z,3.30
2018-01-29T20:53:23.732Z,3.30
2018-01-29T20:55:26.420Z,3.43
2018-01-29T20:57:29.066Z,3.10
2018-01-29T20:59:31.767Z,3.53
2018-01-29T21:01:34.638Z,2.87
2018-01-29T21:03:37.330Z,3.20
2018-01-29T21:05:40.101Z,3.83
2018-01-29T21:07:42.732Z,3.60
2018-01-29T21:09:46.172Z,4.00
2018-01-29T21:11:48.936Z,4.37
2018-01-29T21:13:51.711Z,3.13
2018-01-29T21:15:54.400Z,3.23
2018-01-29T21:17:57.179Z,4.70
2018-01-29T21:19:59.833Z,2.93
2018-01-29T21:22:03.301Z,5.80
2018-01-29T21:24:06.155Z,15.40
2018-01-29T21:26:08.833Z,13.30
2018-01-29T21:28:11.583Z,8.60
2018-01-29T21:30:20.860Z,4.70
2018-01-29T21:32:23.511Z,9.20
2018-01-29T21:34:26.161Z,4.10
2018-01-29T21:36:28.792Z,6.17
2018-01-29T21:38:31.476Z,4.03
2018-01-29T21:40:34.133Z,4.53
2018-01-29T21:42:37.070Z,6.10
2018-01-29T21:44:39.743Z,5.40
2018-01-29T21:46:42.495Z,5.53
2018-01-29T21:48:45.944Z,5.70
2018-01-29T21:50:48.589Z,6.00
2018-01-29T21:52:51.244Z,2.90
2018-01-29T21:54:54.659Z,5.10
2018-01-29T21:56:57.315Z,10.20
2018-01-29T21:59:00.740Z,5.07
2018-01-29T22:01:03.445Z,4.63
2018-01-29T22:03:06.138Z,4.57
2018-01-29T22:05:09.559Z,2.50
2018-01-29T22:07:12.959Z,5.53
2018-01-29T22:09:15.619Z,3.40
2018-01-29T22:11:19.057Z,3.33
2018-01-29T22:13:21.730Z,4.10
2018-01-29T22:15:24.426Z,3.23
2018-01-29T22:17:27.168Z,3.67
2018-01-29T22:19:29.962Z,2.70
2018-01-29T22:21:32.606Z,4.60
2018-01-29T22:23:36.014Z,3.93
2018-01-29T22:25:38.680Z,2.80
2018-01-29T22:27:41.328Z,4.03
2018-01-29T22:29:43.997Z,3.00
2018-01-29T22:31:46.624Z,2.60
2018-01-29T22:33:49.270Z,3.13
2018-01-29T22:35:52.726Z,4.23
2018-01-29T22:37:55.378Z,3.20
2018-01-29T22:39:58.071Z,3.60
2018-01-29T22:42:00.774Z,5.57
2018-01-29T22:44:03.411Z,2.77
2018-01-29T22:46:06.074Z,4.30
2018-01-29T22:48:08.704Z,6.13
2018-01-29T22:50:11.364Z,6.40
2018-01-29T22:52:14.018Z,5.30
2018-01-29T22:54:16.676Z,4.53
2018-01-29T22:56:19.344Z,6.07
2018-01-29T22:58:22.015Z,6.30
2018-01-29T23:00:24.667Z,4.70
2018-01-29T23:02:27.316Z,4.70
2018-01-29T23:04:29.974Z,4.80
2018-01-29T23:06:32.734Z,5.30
2018-01-29T23:08:35.381Z,3.53
2018-01-29T23:10:38.784Z,8.70
2018-01-29T23:12:41.454Z,3.87
2018-01-29T23:14:45.209Z,3.90
2018-01-29T23:16:47.942Z,5.40
2018-01-29T23:18:50.599Z,6.17
2018-01-29T23:20:54.026Z,4.87
2018-01-29T23:22:56.702Z,11.50
2018-01-29T23:24:59.381Z,14.37
2018-01-29T23:27:02.039Z,7.27
2018-01-29T23:29:05.436Z,9.47
2018-01-29T23:31:08.127Z,7.27
2018-01-29T23:33:10.788Z,7.10
2018-01-29T23:35:13.482Z,5.83
2018-01-29T23:37:16.126Z,7.20
2018-01-29T23:39:18.773Z,5.00
2018-01-29T23:41:21.426Z,5.37
2018-01-29T23:43:24.081Z,5.00
2018-01-29T23:45:26.736Z,5.20
2018-01-29T23:47:30.200Z,6.30
2018-01-29T23:49:32.846Z,5.47
2018-01-29T23:51:35.500Z,5.50
2018-01-29T23:53:38.166Z,7.40
2018-01-29T23:55:40.822Z,5.50
2018-01-29T23:57:44.264Z,6.90
2018-01-29T23:59:47.622Z,6.80
